createdAt,value
2023-03-19T00:02:30.971Z,26.80
2023-03-19T00:05:05.492Z,29.10
2023-03-19T00:07:39.481Z,27.50
2023-03-19T00:10:13.996Z,30.80
2023-03-19T00:12:47.731Z,27.30
2023-03-19T00:15:21.489Z,27.60
2023-03-19T00:17:56.921Z,28.60
2023-03-19T00:20:30.886Z,28.80
2023-03-19T00:23:04.393Z,29.00
2023-03-19T00:25:38.048Z,27.40
2023-03-19T00:28:12.393Z,27.60
2023-03-19T00:30:47.088Z,29.10
2023-03-19T00:33:20.739Z,27.30
2023-03-19T00:35:55.372Z,30.20
2023-03-19T00:38:29.559Z,28.40
2023-03-19T00:41:02.855Z,27.50
2023-03-19T00:43:38.001Z,29.40
2023-03-19T00:46:11.763Z,28.20
2023-03-19T00:48:45.501Z,30.00
2023-03-19T00:51:19.264Z,26.80
2023-03-19T00:53:54.379Z,27.30
2023-03-19T00:56:28.003Z,29.70
2023-03-19T00:59:01.734Z,27.90
2023-03-19T01:01:35.394Z,31.50
2023-03-19T01:04:09.746Z,31.10
2023-03-19T01:06:43.619Z,28.30
2023-03-19T01:09:17.556Z,30.30
2023-03-19T01:11:51.669Z,27.60
2023-03-19T01:14:25.379Z,30.70
2023-03-19T01:16:59.260Z,29.20
2023-03-19T01:19:33.016Z,28.70
2023-03-19T01:22:06.690Z,26.60
2023-03-19T01:24:41.273Z,32.00
2023-03-19T01:27:15.292Z,27.90
2023-03-19T01:29:48.917Z,25.00
2023-03-19T01:32:29.893Z,26.40
2023-03-19T01:35:42.997Z,32.30
2023-03-19T01:38:16.903Z,30.40
2023-03-19T01:40:52.566Z,30.40
2023-03-19T01:43:28.341Z,29.60
2023-03-19T01:46:25.293Z,28.90
2023-03-19T01:49:20.381Z,27.60
2023-03-19T01:52:01.309Z,32.00
2023-03-19T01:54:39.809Z,31.90
2023-03-19T01:57:24.613Z,31.90
2023-03-19T02:00:20.676Z,30.00
2023-03-19T02:03:01.177Z,31.90
2023-03-19T02:05:59.651Z,27.40
2023-03-19T02:08:34.194Z,26.40
2023-03-19T02:11:09.069Z,28.30
2023-03-19T02:13:43.095Z,31.10
2023-03-19T02:16:17.175Z,30.50
2023-03-19T02:18:53.829Z,29.50
2023-03-19T02:21:27.630Z,34.30
2023-03-19T02:24:09.644Z,33.40
2023-03-19T02:26:53.137Z,29.50
2023-03-19T02:29:26.866Z,29.10
2023-03-19T02:32:00.914Z,27.60
2023-03-19T02:34:44.618Z,30.20
2023-03-19T02:37:24.469Z,28.50
2023-03-19T02:40:04.867Z,31.70
2023-03-19T02:42:38.766Z,28.40
2023-03-19T02:45:13.793Z,27.90
2023-03-19T02:47:47.195Z,28.90
2023-03-19T02:50:21.047Z,27.30
2023-03-19T02:52:55.932Z,25.90
2023-03-19T02:55:29.385Z,27.20
2023-03-19T02:58:03.611Z,30.70
2023-03-19T03:00:37.739Z,30.50
2023-03-19T03:03:12.115Z,28.10
2023-03-19T03:05:46.595Z,29.60
2023-03-19T03:08:20.977Z,29.80
2023-03-19T03:10:54.807Z,28.60
2023-03-19T03:13:28.762Z,30.90
2023-03-19T03:16:03.614Z,26.50
2023-03-19T03:18:38.010Z,29.70
2023-03-19T03:21:12.061Z,27.60
2023-03-19T03:23:45.649Z,28.50
2023-03-19T03:26:19.334Z,29.10
2023-03-19T03:28:53.268Z,27.70
2023-03-19T03:31:27.497Z,27.50
2023-03-19T03:34:01.153Z,25.10
2023-03-19T03:36:35.233Z,27.70
2023-03-19T03:39:09.543Z,27.80
2023-03-19T03:41:43.043Z,26.70
2023-03-19T03:44:16.879Z,27.60
2023-03-19T03:46:51.296Z,28.20
2023-03-19T03:49:26.030Z,28.50
2023-03-19T03:52:00.001Z,31.00
2023-03-19T03:54:33.997Z,26.90
2023-03-19T03:57:08.413Z,29.60
2023-03-19T03:59:42.956Z,28.40
2023-03-19T04:02:17.122Z,29.20
2023-03-19T04:04:51.038Z,29.30
2023-03-19T04:07:24.999Z,27.70
2023-03-19T04:10:02.595Z,29.50
2023-03-19T04:12:38.104Z,25.70
2023-03-19T04:15:14.807Z,29.10
2023-03-19T04:17:50.951Z,27.90
2023-03-19T04:20:26.015Z,25.20
2023-03-19T04:22:59.632Z,27.40
2023-03-19T04:25:33.155Z,27.60
2023-03-19T04:28:07.488Z,26.70
2023-03-19T04:30:42.089Z,30.60
2023-03-19T04:33:16.215Z,27.70
2023-03-19T04:35:50.057Z,27.60
2023-03-19T04:38:23.870Z,26.20
2023-03-19T04:40:57.876Z,30.40
2023-03-19T04:43:31.385Z,27.90
2023-03-19T04:46:08.368Z,27.60
2023-03-19T04:48:42.520Z,25.80
2023-03-19T04:51:17.202Z,28.70
2023-03-19T04:53:51.233Z,24.60
2023-03-19T04:56:25.126Z,24.80
2023-03-19T04:58:58.748Z,28.60
2023-03-19T05:01:33.349Z,24.90
2023-03-19T05:04:15.425Z,29.00
2023-03-19T05:06:49.016Z,29.50
2023-03-19T05:09:22.676Z,28.00
2023-03-19T05:11:56.894Z,24.80
2023-03-19T05:14:30.779Z,29.00
2023-03-19T05:17:33.898Z,28.90
2023-03-19T05:20:19.955Z,25.30
2023-03-19T05:22:59.033Z,27.20
2023-03-19T05:25:43.178Z,29.80
2023-03-19T05:28:18.741Z,27.90
2023-03-19T05:30:53.080Z,27.30
2023-03-19T05:33:32.627Z,26.70
2023-03-19T05:36:08.199Z,28.80
2023-03-19T05:38:56.598Z,23.60
2023-03-19T05:41:34.190Z,26.50
2023-03-19T05:44:10.797Z,27.20
2023-03-19T05:46:51.133Z,26.20
2023-03-19T05:49:25.674Z,25.90
2023-03-19T05:51:59.062Z,29.50
2023-03-19T05:54:32.738Z,26.40
2023-03-19T05:57:14.899Z,28.80
2023-03-19T06:02:42.283Z,24.60
2023-03-19T06:05:36.303Z,27.50
2023-03-19T06:08:24.896Z,28.60
2023-03-19T06:11:05.659Z,26.40
2023-03-19T06:13:39.890Z,25.20
2023-03-19T06:16:14.979Z,25.10
2023-03-19T06:18:54.991Z,28.10
2023-03-19T06:21:30.794Z,30.60
2023-03-19T06:24:08.308Z,31.90
2023-03-19T06:26:42.874Z,27.50
2023-03-19T06:29:21.762Z,27.20
2023-03-19T06:31:59.160Z,29.80
2023-03-19T06:34:44.788Z,28.60
2023-03-19T06:37:19.272Z,31.00
2023-03-19T06:39:55.004Z,26.40
2023-03-19T06:42:28.936Z,29.30
2023-03-19T06:45:02.843Z,30.30
2023-03-19T06:47:36.749Z,29.00
2023-03-19T06:50:12.685Z,26.50
2023-03-19T06:52:47.001Z,24.70
2023-03-19T06:55:21.326Z,26.30
2023-03-19T06:57:55.249Z,25.90
2023-03-19T07:00:29.602Z,25.90
2023-03-19T07:03:02.929Z,25.60
2023-03-19T07:05:36.763Z,28.80
2023-03-19T07:08:12.292Z,28.60
2023-03-19T07:10:46.069Z,28.70
2023-03-19T07:13:19.972Z,28.60
2023-03-19T07:15:53.584Z,27.30
2023-03-19T07:18:27.485Z,23.80
2023-03-19T07:21:00.879Z,26.80
2023-03-19T07:23:34.952Z,28.40
2023-03-19T07:26:08.999Z,25.70
2023-03-19T07:28:42.594Z,27.50
2023-03-19T07:31:17.329Z,26.60
2023-03-19T07:33:50.917Z,24.50
2023-03-19T07:36:24.900Z,27.00
2023-03-19T07:38:59.422Z,26.30
2023-03-19T07:41:33.686Z,26.60
2023-03-19T07:44:07.382Z,25.50
2023-03-19T07:46:41.204Z,27.00
2023-03-19T07:49:14.677Z,24.40
2023-03-19T07:51:48.661Z,23.00
2023-03-19T07:54:23.878Z,24.10
2023-03-19T07:56:57.218Z,24.80
2023-03-19T07:59:31.100Z,23.00
2023-03-19T08:02:04.765Z,25.60
2023-03-19T08:04:38.665Z,25.40
2023-03-19T08:07:13.122Z,24.80
2023-03-19T08:09:47.171Z,22.10
2023-03-19T08:12:20.778Z,22.50
2023-03-19T08:14:55.007Z,21.60
2023-03-19T08:17:28.918Z,22.30
2023-03-19T08:20:02.614Z,20.50
2023-03-19T08:22:36.389Z,21.30
2023-03-19T08:25:12.353Z,20.50
2023-03-19T08:27:45.984Z,20.30
2023-03-19T08:30:20.365Z,19.00
2023-03-19T08:32:54.459Z,19.70
2023-03-19T08:35:28.550Z,19.80
2023-03-19T08:38:02.589Z,18.00
2023-03-19T08:40:37.142Z,20.60
2023-03-19T08:43:10.990Z,19.40
2023-03-19T08:45:44.582Z,19.80
2023-03-19T08:48:18.546Z,17.40
2023-03-19T08:50:56.973Z,20.80
2023-03-19T08:53:31.484Z,19.00
2023-03-19T08:56:06.788Z,18.10
2023-03-19T08:58:42.491Z,17.70
2023-03-19T09:01:17.093Z,16.70
2023-03-19T09:03:51.059Z,19.30
2023-03-19T09:06:25.726Z,18.00
2023-03-19T09:08:59.321Z,16.60
2023-03-19T09:11:33.124Z,18.80
2023-03-19T09:14:07.543Z,17.90
2023-03-19T09:16:41.364Z,17.60
2023-03-19T09:19:14.813Z,19.00
2023-03-19T09:21:48.822Z,16.60
2023-03-19T09:24:22.985Z,16.40
2023-03-19T09:26:56.997Z,16.40
2023-03-19T09:29:30.648Z,16.50
2023-03-19T09:32:04.462Z,16.00
2023-03-19T09:34:38.118Z,18.90
2023-03-19T09:37:12.286Z,18.20
2023-03-19T09:39:46.804Z,17.50
2023-03-19T09:42:43.377Z,16.50
2023-03-19T09:45:18.832Z,17.20
2023-03-19T09:47:57.319Z,19.20
2023-03-19T09:50:34.990Z,19.40
2023-03-19T09:53:16.687Z,18.00
2023-03-19T09:55:53.141Z,17.30
2023-03-19T09:58:33.307Z,20.10
2023-03-19T10:01:08.111Z,15.90
2023-03-19T10:03:58.462Z,19.30
2023-03-19T10:06:36.111Z,16.90
2023-03-19T10:09:37.190Z,17.80
2023-03-19T10:12:25.448Z,17.70
2023-03-19T10:15:24.010Z,16.60
2023-03-19T10:18:05.048Z,16.10
2023-03-19T10:20:47.449Z,16.20
2023-03-19T10:23:39.074Z,18.40
2023-03-19T10:26:17.968Z,14.70
2023-03-19T10:28:59.981Z,16.30
2023-03-19T10:31:45.603Z,15.10
2023-03-19T10:34:36.680Z,15.70
2023-03-19T10:37:20.905Z,16.90
2023-03-19T10:39:58.010Z,16.20
2023-03-19T10:42:50.183Z,15.10
2023-03-19T10:45:30.649Z,14.60
2023-03-19T10:48:06.019Z,14.90
2023-03-19T10:50:48.202Z,13.10
2023-03-19T10:53:35.297Z,13.80
2023-03-19T10:56:19.229Z,14.50
2023-03-19T10:59:03.419Z,14.20
2023-03-19T11:01:40.919Z,15.10
2023-03-19T11:04:19.514Z,15.50
2023-03-19T11:06:55.029Z,15.80
2023-03-19T11:09:36.283Z,15.40
2023-03-19T11:12:23.451Z,15.80
2023-03-19T11:14:58.981Z,13.60
2023-03-19T11:17:42.052Z,14.20
2023-03-19T11:20:29.003Z,12.90
2023-03-19T11:23:04.611Z,13.60
2023-03-19T11:25:41.157Z,13.50
2023-03-19T11:28:20.480Z,16.10
2023-03-19T11:31:04.148Z,12.40
2023-03-19T11:33:58.094Z,12.90
2023-03-19T11:36:36.019Z,14.10
2023-03-19T11:39:23.836Z,12.10
2023-03-19T11:42:27.235Z,13.10
2023-03-19T11:45:12.033Z,13.60
2023-03-19T11:47:54.089Z,14.90
2023-03-19T11:50:35.413Z,12.80
2023-03-19T11:53:22.860Z,13.60
2023-03-19T11:56:04.523Z,12.60
2023-03-19T11:59:05.831Z,13.40
2023-03-19T12:01:58.206Z,12.60
2023-03-19T12:04:51.389Z,13.90
2023-03-19T12:07:33.745Z,16.20
2023-03-19T12:10:28.273Z,14.00
2023-03-19T12:13:18.246Z,14.40
2023-03-19T12:16:03.792Z,13.90
2023-03-19T12:19:00.018Z,15.20
2023-03-19T12:21:43.059Z,14.50
2023-03-19T12:24:28.859Z,14.20
2023-03-19T12:27:22.206Z,13.40
2023-03-19T12:30:02.378Z,14.00
2023-03-19T12:32:56.016Z,14.10
2023-03-19T12:35:36.001Z,12.90
2023-03-19T12:38:15.765Z,13.80
2023-03-19T12:40:54.192Z,13.30
2023-03-19T12:43:34.211Z,13.60
2023-03-19T12:46:14.243Z,14.70
2023-03-19T12:48:54.095Z,14.20
2023-03-19T12:51:30.596Z,14.70
2023-03-19T12:54:08.095Z,13.50
2023-03-19T12:56:48.705Z,15.00
2023-03-19T12:59:31.306Z,15.90
2023-03-19T13:02:14.064Z,14.20
2023-03-19T13:04:55.133Z,14.70
2023-03-19T13:07:35.984Z,14.10
2023-03-19T13:10:15.833Z,13.20
2023-03-19T13:12:51.050Z,14.10
2023-03-19T13:15:30.606Z,16.70
2023-03-19T13:18:17.035Z,16.70
2023-03-19T13:21:06.342Z,13.50
2023-03-19T13:23:44.428Z,14.80
2023-03-19T13:26:19.837Z,21.70
2023-03-19T13:29:10.633Z,15.10
2023-03-19T13:31:44.691Z,15.00
2023-03-19T13:34:29.441Z,13.60
2023-03-19T13:37:14.072Z,14.00
2023-03-19T13:39:50.001Z,14.80
2023-03-19T13:42:39.926Z,14.30
2023-03-19T13:45:36.289Z,14.30
2023-03-19T13:48:40.547Z,13.70
2023-03-19T13:51:31.036Z,15.30
2023-03-19T13:54:18.260Z,14.50
2023-03-19T13:57:19.969Z,13.50
2023-03-19T13:59:54.471Z,13.70
2023-03-19T14:02:51.025Z,14.50
2023-03-19T14:05:26.367Z,14.40
2023-03-19T14:07:59.918Z,17.40
2023-03-19T14:10:35.110Z,16.20
2023-03-19T14:13:20.515Z,14.10
2023-03-19T14:16:02.297Z,16.20
2023-03-19T14:18:40.598Z,14.40
2023-03-19T14:21:22.132Z,14.60
2023-03-19T14:24:52.229Z,13.70
2023-03-19T14:27:20.250Z,14.00
2023-03-19T14:29:57.962Z,16.70
2023-03-19T14:32:41.935Z,13.90
2023-03-19T14:35:21.099Z,14.40
2023-03-19T14:37:58.460Z,15.20
2023-03-19T14:40:42.476Z,15.70
2023-03-19T14:43:29.373Z,15.20
2023-03-19T14:46:05.145Z,13.90
2023-03-19T14:49:11.622Z,14.30
2023-03-19T14:52:01.003Z,17.20
2023-03-19T14:54:43.091Z,14.30
2023-03-19T14:57:22.261Z,15.00
2023-03-19T15:02:43.284Z,18.10
2023-03-19T15:05:25.083Z,17.30
2023-03-19T15:08:04.687Z,15.20
2023-03-19T15:10:50.233Z,14.60
2023-03-19T15:13:37.906Z,15.00
2023-03-19T15:16:30.605Z,14.10
2023-03-19T15:19:10.436Z,13.30
2023-03-19T15:21:44.789Z,15.80
2023-03-19T15:24:20.818Z,14.60
2023-03-19T15:26:56.198Z,17.10
2023-03-19T15:29:38.507Z,15.00
2023-03-19T15:32:49.700Z,13.20
2023-03-19T15:35:35.402Z,16.70
2023-03-19T15:38:15.283Z,15.80
2023-03-19T15:40:51.964Z,17.80
2023-03-19T15:43:30.161Z,13.50
2023-03-19T15:48:45.364Z,14.30
2023-03-19T15:51:21.689Z,15.30
2023-03-19T15:54:01.285Z,17.60
2023-03-19T15:56:37.723Z,15.50
2023-03-19T15:59:15.189Z,18.70
2023-03-19T16:01:53.481Z,16.90
2023-03-19T16:04:32.067Z,17.30
2023-03-19T16:07:24.355Z,19.00
2023-03-19T16:10:00.769Z,18.00
2023-03-19T16:12:42.520Z,19.80
2023-03-19T16:15:35.650Z,19.70
2023-03-19T16:18:33.484Z,15.70
2023-03-19T16:21:22.226Z,20.70
2023-03-19T16:24:02.142Z,19.80
2023-03-19T16:26:44.705Z,20.30
2023-03-19T16:29:30.425Z,22.60
2023-03-19T16:32:20.385Z,21.60
2023-03-19T16:34:59.897Z,18.90
2023-03-19T16:37:46.095Z,29.40
2023-03-19T16:40:49.864Z,25.10
2023-03-19T16:43:39.383Z,17.20
2023-03-19T16:46:17.026Z,21.10
2023-03-19T16:48:53.890Z,20.50
2023-03-19T16:51:32.755Z,20.70
2023-03-19T16:54:13.176Z,24.30
2023-03-19T16:56:51.018Z,20.00
2023-03-19T16:59:34.439Z,17.60
2023-03-19T17:02:19.972Z,18.00
2023-03-19T17:05:00.651Z,20.20
2023-03-19T17:07:43.309Z,23.60
2023-03-19T17:10:23.393Z,23.50
2023-03-19T17:13:00.631Z,19.30
2023-03-19T17:15:44.951Z,20.20
2023-03-19T17:18:27.074Z,16.90
2023-03-19T17:21:09.521Z,17.80
2023-03-19T17:23:46.269Z,18.70
2023-03-19T17:26:32.997Z,17.00
2023-03-19T17:29:11.110Z,18.20
2023-03-19T17:31:48.255Z,17.00
2023-03-19T17:34:34.068Z,18.80
2023-03-19T17:37:19.956Z,17.90
2023-03-19T17:40:15.500Z,19.30
2023-03-19T17:42:54.602Z,18.20
2023-03-19T17:48:09.798Z,23.00
2023-03-19T17:50:49.603Z,20.60
2023-03-19T17:53:27.758Z,20.80
2023-03-19T17:56:07.842Z,19.90
2023-03-19T17:58:47.175Z,23.00
2023-03-19T18:01:30.978Z,23.60
2023-03-19T18:04:14.696Z,23.30
2023-03-19T18:06:56.343Z,25.50
2023-03-19T18:09:35.105Z,24.90
2023-03-19T18:12:12.873Z,22.40
2023-03-19T18:14:52.521Z,24.30
2023-03-19T18:17:40.505Z,26.30
2023-03-19T18:20:21.747Z,24.10
2023-03-19T18:23:01.952Z,22.20
2023-03-19T18:25:41.159Z,24.20
2023-03-19T18:28:17.520Z,25.60
2023-03-19T18:30:56.086Z,22.90
2023-03-19T18:36:14.085Z,25.10
2023-03-19T18:38:55.516Z,22.20
2023-03-19T18:41:41.000Z,28.90
2023-03-19T18:44:19.699Z,25.40
2023-03-19T18:46:56.428Z,24.90
2023-03-19T18:49:34.056Z,23.40
2023-03-19T18:52:13.070Z,24.30
2023-03-19T18:54:50.808Z,24.10
2023-03-19T18:57:36.752Z,21.50
2023-03-19T19:00:25.948Z,24.50
2023-03-19T19:03:05.420Z,24.80
2023-03-19T19:05:42.354Z,25.40
2023-03-19T19:08:27.867Z,25.80
2023-03-19T19:11:06.602Z,22.80
2023-03-19T19:13:55.453Z,24.60
2023-03-19T19:16:42.663Z,32.20
2023-03-19T19:19:23.041Z,33.40
2023-03-19T19:22:00.799Z,29.50
2023-03-19T19:24:36.657Z,29.70
2023-03-19T19:27:25.146Z,28.10
2023-03-19T19:30:01.277Z,29.00
2023-03-19T19:32:41.742Z,29.30
2023-03-19T19:35:27.599Z,31.60
2023-03-19T19:38:05.202Z,29.50
2023-03-19T19:43:24.948Z,26.00
2023-03-19T19:46:04.721Z,25.90
2023-03-19T19:48:46.771Z,27.70
2023-03-19T19:51:26.286Z,33.10
2023-03-19T19:54:03.906Z,32.40
2023-03-19T19:56:43.484Z,34.80
2023-03-19T19:59:20.877Z,32.60
2023-03-19T20:01:56.803Z,32.50
2023-03-19T20:04:33.656Z,33.10
2023-03-19T20:07:10.913Z,34.50
2023-03-19T20:09:47.717Z,32.00
2023-03-19T20:12:39.969Z,33.40
2023-03-19T20:15:34.239Z,32.10
2023-03-19T20:18:18.708Z,28.80
2023-03-19T20:21:02.451Z,31.70
2023-03-19T20:23:40.388Z,32.00
2023-03-19T20:26:20.319Z,34.30
2023-03-19T20:28:57.388Z,29.40
2023-03-19T20:31:35.398Z,29.20
2023-03-19T20:34:25.527Z,32.90
2023-03-19T20:37:14.707Z,28.70
2023-03-19T20:39:54.220Z,34.40
2023-03-19T20:42:36.593Z,36.70
2023-03-19T20:45:21.504Z,32.60
2023-03-19T20:48:00.904Z,33.70
2023-03-19T20:50:48.648Z,36.30
2023-03-19T20:53:25.915Z,30.20
2023-03-19T20:56:04.944Z,34.90
2023-03-19T20:58:46.273Z,31.70
2023-03-19T21:01:23.784Z,36.20
2023-03-19T21:04:01.696Z,31.40
2023-03-19T21:06:52.070Z,33.20
2023-03-19T21:09:30.707Z,34.50
2023-03-19T21:12:18.223Z,33.20
2023-03-19T21:14:58.873Z,34.50
2023-03-19T21:17:34.836Z,35.00
2023-03-19T21:20:18.382Z,35.50
2023-03-19T21:22:56.613Z,34.90
2023-03-19T21:25:39.648Z,38.60
2023-03-19T21:28:22.101Z,34.40
2023-03-19T21:31:02.484Z,36.70
2023-03-19T21:33:38.418Z,35.70
2023-03-19T21:36:15.814Z,39.50
2023-03-19T21:38:51.287Z,38.70
2023-03-19T21:41:31.067Z,36.80
2023-03-19T21:44:07.981Z,47.60
2023-03-19T21:46:43.152Z,45.70
2023-03-19T21:49:18.247Z,39.50
2023-03-19T21:51:52.672Z,38.60
2023-03-19T21:54:26.405Z,34.70
2023-03-19T21:56:59.994Z,39.20
2023-03-19T21:59:35.634Z,36.90
2023-03-19T22:02:37.242Z,41.00
2023-03-19T22:05:19.070Z,43.10
2023-03-19T22:07:53.163Z,36.60
2023-03-19T22:10:30.497Z,44.70
2023-03-19T22:13:04.865Z,39.90
2023-03-19T22:15:40.077Z,38.00
2023-03-19T22:18:19.124Z,40.90
2023-03-19T22:20:53.302Z,39.10
2023-03-19T22:23:26.641Z,43.70
2023-03-19T22:26:00.072Z,42.20
2023-03-19T22:28:36.206Z,43.10
2023-03-19T22:31:10.548Z,39.90
2023-03-19T22:33:44.301Z,43.20
2023-03-19T22:36:18.142Z,42.60
2023-03-19T22:38:52.162Z,41.10
2023-03-19T22:41:32.332Z,41.00
2023-03-19T22:44:08.527Z,39.90
2023-03-19T22:46:42.231Z,42.00
2023-03-19T22:49:19.049Z,43.80
2023-03-19T22:51:52.481Z,40.20
2023-03-19T22:54:26.387Z,43.00
2023-03-19T22:57:00.106Z,41.50
2023-03-19T22:59:33.838Z,45.90
2023-03-19T23:02:07.704Z,40.70
2023-03-19T23:04:42.167Z,41.10
2023-03-19T23:07:16.251Z,49.00
2023-03-19T23:09:50.101Z,45.10
2023-03-19T23:12:23.710Z,44.80
2023-03-19T23:14:57.389Z,46.40
2023-03-19T23:17:31.257Z,47.20
2023-03-19T23:20:13.166Z,40.40
2023-03-19T23:22:47.254Z,42.30
2023-03-19T23:25:29.388Z,37.70
2023-03-19T23:28:04.309Z,46.10
2023-03-19T23:30:41.762Z,42.60
2023-03-19T23:33:17.500Z,49.40
2023-03-19T23:35:51.095Z,46.10
2023-03-19T23:38:24.928Z,45.10
2023-03-19T23:40:58.747Z,45.00
2023-03-19T23:43:33.802Z,44.50
2023-03-19T23:46:11.429Z,42.70
2023-03-19T23:48:45.220Z,44.60
2023-03-19T23:51:19.361Z,47.90
2023-03-19T23:53:52.943Z,42.70
2023-03-19T23:56:28.105Z,47.60
2023-03-19T23:59:01.575Z,46.00
